Gasquet, California
Current Conditions -  °F | °C
As of 4:56 AM on Friday 19 Dec 2014 (Local Time) from KCEC Reporting Station
Overcast Overcast  
Wind Chill: 51°   Ceiling: 2900
Heat Index: 51°   Visibility: 10mi
Dew Point: 49°   Wind: 15mph
Humidity: 92%   Direction: 150°SSE
Pressure: 30"   Gusts: NA
Location:  41.85°N, 123.97°W
Report Text: KCEC 191256Z AUTO 15013KT 10SM FEW018 BKN029 OVC070 11/09 A3000 RMK AO2 LTG DSNT NW RAE21 SLP158 P0001 T01060094 $
Loading
Personal Weather Stations






























Interactive Weather Map New forecast layout! Learn more

10-Day Weather Forecast

Advertisements
Track Severe Weather on mobile